Flight Track Log - Related Links

Times and Time Zones

All times are in EDT time to prevent confusion due to time zone crossing. See the AWI3680 flight status page for this flight to view local times or setup timezone preferences in your user account.

Time Position Orientation Groundspeed Altitude Reporting Facility
EDT Latitude Longitude Course Direction KTS MPH feet Rate Location/Type
Fri 06:41:22 PM 39.8667 -75.2667 105° East 159 183 900  Level Philadelphia TRACON
Fri 06:42:59 PM 39.8000 -75.3333 218° Southwest 207 238 4,800 2,462 Climbing Philadelphia TRACON
Fri 06:43:00 PM 39.8264 -74.9696 123° Southeast  Level FlightAware Approximate
Fri 06:43:58 PM 39.7333 -75.3500 191° South 251 289 7,300  Level Philadelphia TRACON
Fri 06:44:00 PM 39.8167 -74.8809 90° East  Level FlightAware Approximate
Fri 06:45:00 PM 39.8016 -74.7910 105° East  Level FlightAware Approximate
Fri 06:45:29 PM 39.7292 -75.2275 92° East 286 329 10,400  Level New York Center
Fri 06:46:00 PM 39.7836 -74.7016 105° East  Level FlightAware Approximate
Fri 06:46:29 PM 39.7417 -75.1147 82° East 307 353 11,900  Level New York Center
Fri 06:47:27 PM 39.7592 -74.9808 80° East 335 386 12,000 51 Climbing New York Center
Fri 06:48:27 PM 39.7736 -74.8656 81° East 357 411 12,000 645 Level New York Center
Fri 06:49:28 PM 39.8036 -74.7186 75° East 369 425 13,300 1,377 Climbing New York Center
Fri 06:50:29 PM 39.8858 -74.6286 40° Northeast 364 419 14,800 1,377 Climbing New York Center
Fri 06:51:30 PM 39.9719 -74.5439 37° Northeast 364 419 16,100 1,220 Climbing New York Center
Fri 06:52:27 PM 40.0517 -74.4614 38° Northeast 391 450 17,200 1,008 Climbing New York Center
Fri 06:53:29 PM 40.1442 -74.3714 37° Northeast 409 471 18,100 850 Climbing New York Center
Fri 06:54:27 PM 40.2386 -74.2786 37° Northeast 414 476 18,900 915 Climbing New York Center
Fri 06:55:27 PM 40.3517 -74.1889 31° Northeast 420 483 19,900 893 Climbing New York Center
Fri 06:56:28 PM 40.4581 -74.1125 29° Northeast 430 495 20,700 793 Climbing New York Center
Fri 06:57:28 PM 40.5644 -74.0328 30° Northeast 435 501 21,500 744 Climbing New York Center
Fri 06:58:29 PM 40.6708 -73.9503 30° Northeast 435 501 22,200 652 Climbing New York Center
Fri 07:00:32 PM 40.8881 -73.7497 35° Northeast 449 517 23,500 590 Climbing Boston Center
Fri 07:01:32 PM 40.9706 -73.6386 45° Northeast 454 522 24,000 -50 Climbing Boston Center
Fri 07:02:32 PM 41.0822 -73.5361 35° Northeast 459 528 23,400 -800 Descending Boston Center
Fri 07:03:32 PM 41.2011 -73.5269 North 421 484 22,400 -1,050 Descending Boston Center
Fri 07:04:32 PM 41.3178 -73.5264 360° North 413 475 21,300 -1,100 Descending Boston Center
Fri 07:05:32 PM 41.4322 -73.5253 360° North 413 475 20,200 -1,350 Descending Boston Center
Fri 07:06:32 PM 41.5447 -73.5275 359° North 403 464 18,600 -1,600 Descending Boston Center
Fri 07:07:32 PM 41.6450 -73.5264 360° North 398 458 17,000 -1,750 Descending Boston Center
Fri 07:08:32 PM 41.7617 -73.5283 359° North 392 451 15,100 -1,800 Descending Boston Center
Fri 07:09:32 PM 41.8575 -73.5272 360° North 380 437 13,400 -1,850 Descending Boston Center
Fri 07:10:19 PM 41.9492 -73.5286 359° North 370 426 11,800 -1,516 Descending Boston Center
Fri 07:11:07 PM 42.0283 -73.5272 North 367 422 11,000 -440 Descending Boston Center
Fri 07:12:08 PM 42.1242 -73.5261 360° North 353 406 11,000  Level Boston Center
Fri 07:13:09 PM 42.2219 -73.5475 351° North 323 372 11,000 -843 Level Boston Center
Fri 07:14:09 PM 42.3011 -73.5658 350° North 289 333 9,300 -1,785 Descending Boston Center
Fri 07:15:10 PM 42.3800 -73.5783 353° North 277 319 7,400 -1,967 Descending Boston Center
Fri 07:16:11 PM 42.4550 -73.5967 350° North 276 318 5,300 -1,686 Descending Boston Center
Fri 07:17:11 PM 42.5278 -73.6150 349° North 271 312 4,000 -645 Descending Boston Center
Fri 07:18:12 PM 42.6006 -73.6333 349° North 260 299 4,000  Level Boston Center
Fri 07:19:19 PM 42.6817 -73.6517 351° North 253 291 4,000  Level Boston Center
Fri 07:20:25 PM 42.7544 -73.6644 353° North 253 291 4,000 -614 Level Boston Center
Fri 07:21:26 PM 42.8292 -73.6744 354° North 254 292 2,700 -787 Descending Boston Center
Fri 07:22:27 PM 42.8853 -73.6925 347° North 203 234 2,400 -295 Descending Boston Center

Login

Don't have an account? Register now (free) for customized features, flight alerts, and more!